LIGHT2 ENOV-ENSG
Flight info
| Callsign | LIGHT2 |
|---|---|
| Flight time | 0h 15m |
| Altitude | 17000 |
| Route | ENSG |
| Aircraft | F35/M-V/N |
Departure
| Time | 2026-04-23 12:56 |
|---|---|
| Airport | Ørsta-Volda Airport, Hovden (ENOV) |
Arrival
| Time | 2026-04-23 13:11 |
|---|---|
| Airport | Sogndal Airport, Haukåsen (ENSG) |
| Time | Latitude | Longitude | Altitude | Speed | Heading |
|---|---|---|---|---|---|
| 2026-04-23 12:54 | 62.18039 | 6.07933 | 245 ft | 12 kts | 39° |
| 2026-04-23 12:54 | 62.18061 | 6.07972 | 244 ft | 0 kts | 39° |
| 2026-04-23 12:55 | 62.18086 | 6.07990 | 243 ft | 0 kts | 336° |
| 2026-04-23 12:56 | 62.18129 | 6.07854 | 244 ft | 19 kts | 243° |
| 2026-04-23 12:56 | 62.17810 | 6.06668 | 251 ft | 186 kts | 240° |
| 2026-04-23 12:56 | 62.17093 | 6.03959 | 993 ft | 205 kts | 240° |
| 2026-04-23 12:56 | 62.16493 | 6.01161 | 2233 ft | 216 kts | 266° |
| 2026-04-23 12:57 | 62.17097 | 5.98191 | 3185 ft | 227 kts | 306° |
| 2026-04-23 12:57 | 62.17732 | 5.96658 | 6089 ft | 76 kts | 317° |
| 2026-04-23 12:57 | 62.18228 | 5.95673 | 9778 ft | 86 kts | 319° |
| 2026-04-23 12:57 | 62.18760 | 5.94597 | 13074 ft | 174 kts | 317° |
| 2026-04-23 12:58 | 62.19544 | 5.92689 | 15979 ft | 178 kts | 288° |
| 2026-04-23 12:58 | 62.19955 | 5.89028 | 17548 ft | 335 kts | 283° |
| 2026-04-23 12:58 | 62.20218 | 5.82965 | 18663 ft | 451 kts | 272° |
| 2026-04-23 12:58 | 62.20245 | 5.76655 | 18596 ft | 398 kts | 270° |
| 2026-04-23 12:59 | 62.19447 | 5.71402 | 18398 ft | 359 kts | 231° |
| 2026-04-23 12:59 | 62.17325 | 5.68576 | 17845 ft | 367 kts | 194° |
| 2026-04-23 12:59 | 62.14789 | 5.69058 | 17707 ft | 381 kts | 169° |
| 2026-04-23 12:59 | 62.12240 | 5.70303 | 17657 ft | 375 kts | 169° |
| 2026-04-23 13:00 | 62.09823 | 5.71614 | 17288 ft | 358 kts | 162° |
| 2026-04-23 13:00 | 62.07532 | 5.73827 | 17253 ft | 359 kts | 148° |
| 2026-04-23 13:00 | 62.05598 | 5.77272 | 17540 ft | 379 kts | 126° |
| 2026-04-23 13:00 | 62.04349 | 5.82318 | 17186 ft | 378 kts | 113° |
| 2026-04-23 13:01 | 62.03425 | 5.87599 | 17014 ft | 378 kts | 108° |
| 2026-04-23 13:01 | 62.02583 | 5.92933 | 16837 ft | 380 kts | 108° |
| 2026-04-23 13:01 | 62.01570 | 5.97998 | 17024 ft | 360 kts | 124° |
| 2026-04-23 13:01 | 61.99750 | 6.01868 | 18101 ft | 381 kts | 146° |
| 2026-04-23 13:02 | 61.97401 | 6.05041 | 18820 ft | 414 kts | 147° |
| 2026-04-23 13:02 | 61.95122 | 6.08678 | 19135 ft | 413 kts | 142° |
| 2026-04-23 13:02 | 61.92961 | 6.12739 | 19443 ft | 434 kts | 138° |
| 2026-04-23 13:02 | 61.90355 | 6.18133 | 19646 ft | 597 kts | 135° |
| 2026-04-23 13:03 | 61.87450 | 6.24429 | 19279 ft | 595 kts | 135° |
| 2026-04-23 13:03 | 61.84554 | 6.30708 | 18989 ft | 596 kts | 135° |
| 2026-04-23 13:03 | 61.81636 | 6.36949 | 18496 ft | 596 kts | 137° |
| 2026-04-23 13:03 | 61.78273 | 6.41812 | 17535 ft | 586 kts | 151° |
| 2026-04-23 13:04 | 61.74759 | 6.46191 | 17461 ft | 587 kts | 150° |
| 2026-04-23 13:04 | 61.71282 | 6.50529 | 17352 ft | 586 kts | 150° |
| 2026-04-23 13:04 | 61.67767 | 6.54908 | 17251 ft | 586 kts | 150° |
| 2026-04-23 13:04 | 61.64257 | 6.59279 | 17144 ft | 584 kts | 150° |
| 2026-04-23 13:05 | 61.60753 | 6.63637 | 17004 ft | 583 kts | 150° |
| 2026-04-23 13:05 | 61.57250 | 6.67990 | 16866 ft | 583 kts | 150° |
| 2026-04-23 13:05 | 61.53782 | 6.72400 | 16760 ft | 585 kts | 148° |
| 2026-04-23 13:05 | 61.50489 | 6.77086 | 15130 ft | 573 kts | 144° |
| 2026-04-23 13:06 | 61.44345 | 6.87071 | 11139 ft | 546 kts | 135° |
| 2026-04-23 13:06 | 61.41681 | 6.92622 | 9289 ft | 531 kts | 133° |
| 2026-04-23 13:06 | 61.39238 | 6.98132 | 8966 ft | 504 kts | 130° |
| 2026-04-23 13:07 | 61.37466 | 7.02254 | 8736 ft | 297 kts | 130° |
| 2026-04-23 13:07 | 61.36042 | 7.05141 | 7595 ft | 287 kts | 137° |
| 2026-04-23 13:07 | 61.34526 | 7.07726 | 5827 ft | 277 kts | 141° |
| 2026-04-23 13:07 | 61.33068 | 7.10063 | 4429 ft | 246 kts | 139° |
| 2026-04-23 13:08 | 61.31769 | 7.12552 | 4244 ft | 252 kts | 138° |
| 2026-04-23 13:08 | 61.30469 | 7.15016 | 4235 ft | 252 kts | 139° |
| 2026-04-23 13:08 | 61.29182 | 7.17425 | 4209 ft | 252 kts | 139° |
| 2026-04-23 13:08 | 61.27891 | 7.19859 | 4207 ft | 250 kts | 138° |
| 2026-04-23 13:09 | 61.26603 | 7.22320 | 4205 ft | 251 kts | 138° |
| 2026-04-23 13:09 | 61.25316 | 7.24775 | 4224 ft | 250 kts | 138° |
| 2026-04-23 13:09 | 61.23874 | 7.26324 | 4056 ft | 227 kts | 183° |
| 2026-04-23 13:09 | 61.22568 | 7.24929 | 3344 ft | 213 kts | 224° |
| 2026-04-23 13:10 | 61.21426 | 7.22891 | 2493 ft | 219 kts | 217° |
| 2026-04-23 13:10 | 61.20122 | 7.21515 | 1794 ft | 191 kts | 206° |
| 2026-04-23 13:10 | 61.19043 | 7.20418 | 1491 ft | 168 kts | 217° |
| 2026-04-23 13:10 | 61.18133 | 7.19008 | 1473 ft | 161 kts | 225° |
| 2026-04-23 13:11 | 61.17252 | 7.17542 | 1537 ft | 166 kts | 218° |
| 2026-04-23 13:11 | 61.16440 | 7.15978 | 1786 ft | 166 kts | 230° |
| 2026-04-23 13:11 | 61.15798 | 7.14365 | 1641 ft | 107 kts | 242° |
| 2026-04-23 13:11 | 61.15605 | 7.13734 | 1632 ft | 9 kts | 165° |
| 2026-04-23 13:12 | 61.15679 | 7.13810 | 1634 ft | 19 kts | 340° |
| 2026-04-23 13:12 | 61.15721 | 7.13828 | 1636 ft | 5 kts | 51° |
| 2026-04-23 13:12 | 61.15754 | 7.13897 | 1637 ft | 0 kts | 38° |
| 2026-04-23 13:16 | 61.15754 | 7.13895 | 1637 ft | 0 kts | 1° |
| 2026-04-23 13:17 | 61.15754 | 7.13896 | 1637 ft | 0 kts | 11° |